Time;durP1;ratioP1;P1;durP2;ratioP2;P2;SDS_P1;SDS_P2;PMS_P1;PMS_P2;Temp;Humidity;BMP_temperature;BMP_pressure;BME280_temperature;BME280_humidity;BME280_pressure;Samples;Min_cycle;Max_cycle;Signal;HPM_P1;HPM_P2
2023/03/12 00:02:15;;;;;;;29.73;10.53;;;;;;;;;;5035766;28;20173;-63
2023/03/12 00:04:43;;;;;;;14.53;9.87;;;;;;;;;;5035411;28;20869;-63
2023/03/12 00:07:09;;;;;;;15.48;10.05;;;;;;;;;;5035677;28;20839;-64
2023/03/12 00:09:40;;;;;;;11.80;8.70;;;;;;;;;;5035207;28;20189;-63
2023/03/12 00:12:07;;;;;;;13.85;9.25;;;;;;;;;;5018349;28;20431;-63
2023/03/12 00:14:33;;;;;;;14.35;8.73;;;;;;;;;;5035681;28;20314;-63
2023/03/12 00:16:59;;;;;;;13.70;8.47;;;;;;;;;;5035817;28;20228;-63
2023/03/12 00:19:26;;;;;;;10.90;7.95;;;;;;;;;;5035445;28;20494;-64
2023/03/12 00:21:52;;;;;;;18.67;8.20;;;;;;;;;;5035586;28;20204;-63
2023/03/12 00:24:18;;;;;;;8.53;7.73;;;;;;;;;;5035567;28;20532;-63
2023/03/12 00:26:44;;;;;;;8.82;7.40;;;;;;;;;;5035560;28;20519;-63
2023/03/12 00:29:10;;;;;;;9.70;7.70;;;;;;;;;;5035184;28;20263;-63
2023/03/12 00:31:36;;;;;;;11.37;6.90;;;;;;;;;;5035456;28;20431;-63
2023/03/12 00:34:02;;;;;;;9.98;6.57;;;;;;;;;;5035003;28;20828;-64
2023/03/12 00:36:29;;;;;;;6.65;5.97;;;;;;;;;;5034995;28;20275;-64
2023/03/12 00:38:55;;;;;;;6.55;6.05;;;;;;;;;;5035285;28;20223;-64
2023/03/12 00:41:24;;;;;;;5.90;5.35;;;;;;;;;;5035213;28;20193;-63
2023/03/12 00:43:50;;;;;;;6.95;5.18;;;;;;;;;;5017410;28;20565;-64
2023/03/12 00:46:16;;;;;;;7.47;5.38;;;;;;;;;;5035086;28;20184;-63
2023/03/12 00:48:42;;;;;;;5.90;5.30;;;;;;;;;;5034858;28;20208;-63
2023/03/12 00:51:09;;;;;;;8.32;5.90;;;;;;;;;;5034887;28;20800;-63
2023/03/12 00:53:35;;;;;;;5.65;5.13;;;;;;;;;;5034805;28;20184;-64
2023/03/12 00:56:02;;;;;;;7.43;6.30;;;;;;;;;;5034667;28;20294;-62
2023/03/12 00:58:28;;;;;;;6.45;5.82;;;;;;;;;;5035053;28;20553;-65
2023/03/12 01:00:56;;;;;;;8.37;6.03;;;;;;;;;;5034709;28;20173;-63
2023/03/12 01:03:22;;;;;;;8.25;6.13;;;;;;;;;;5034513;28;20867;-63
2023/03/12 01:05:52;;;;;;;11.33;6.70;;;;;;;;;;5034161;28;20185;-62
2023/03/12 01:08:18;;;;;;;6.53;5.70;;;;;;;;;;5034680;28;20553;-63
2023/03/12 01:10:44;;;;;;;9.25;6.50;;;;;;;;;;5034549;28;20172;-63
2023/03/12 01:13:11;;;;;;;7.00;6.10;;;;;;;;;;5034397;28;20256;-63
2023/03/12 01:15:36;;;;;;;8.45;5.82;;;;;;;;;;5035039;28;20419;-64
2023/03/12 01:18:03;;;;;;;6.17;5.67;;;;;;;;;;5034722;28;20173;-63
2023/03/12 01:20:29;;;;;;;7.38;5.30;;;;;;;;;;5034325;28;20412;-63
2023/03/12 01:22:55;;;;;;;8.60;5.78;;;;;;;;;;5034283;28;20562;-63
2023/03/12 01:25:21;;;;;;;7.90;5.40;;;;;;;;;;5034307;28;20177;-63
2023/03/12 01:27:52;;;;;;;12.02;5.00;;;;;;;;;;5034267;28;20550;-64
2023/03/12 01:30:22;;;;;;;14.20;6.20;;;;;;;;;;5034318;28;20544;-64
2023/03/12 01:32:48;;;;;;;10.18;6.53;;;;;;;;;;5016201;28;20205;-65
2023/03/12 01:35:20;;;;;;;8.10;6.30;;;;;;;;;;5034461;28;20534;-63
2023/03/12 01:37:56;;;;;;;15.20;6.07;;;;;;;;;;5034325;28;20925;-63
2023/03/12 01:40:43;;;;;;;6.38;5.30;;;;;;;;;;5034218;28;20655;-64
2023/03/12 01:52:43;;;;;;;8.27;5.43;;;;;;;;;;5025561;28;20243;-64
2023/03/12 01:55:25;;;;;;;8.15;5.68;;;;;;;;;;5033554;28;20179;-64
2023/03/12 01:58:07;;;;;;;6.47;5.65;;;;;;;;;;5033955;28;20216;-63
2023/03/12 02:04:22;;;;;;;7.85;6.80;;;;;;;;;;4930495;29;20259;-63
2023/03/12 02:07:08;;;;;;;7.70;6.70;;;;;;;;;;4932668;29;20249;-63
2023/03/12 02:09:44;;;;;;;6.13;5.68;;;;;;;;;;4914770;29;20569;-63
2023/03/12 02:12:36;;;;;;;9.00;5.88;;;;;;;;;;4999174;28;20188;-63
2023/03/12 02:18:28;;;;;;;6.45;5.70;;;;;;;;;;5009860;28;20201;-64
2023/03/12 02:21:00;;;;;;;8.75;6.25;;;;;;;;;;5033268;28;20230;-63
2023/03/12 02:26:38;;;;;;;10.02;6.65;;;;;;;;;;5032821;28;20176;-64
2023/03/12 02:32:31;;;;;;;7.53;6.55;;;;;;;;;;5029066;28;20687;-64
2023/03/12 02:34:59;;;;;;;7.35;6.38;;;;;;;;;;5032803;28;20180;-63
2023/03/12 02:37:35;;;;;;;7.43;6.72;;;;;;;;;;5032573;28;20184;-62
2023/03/12 02:40:11;;;;;;;5.85;5.15;;;;;;;;;;5032835;28;20218;-63
2023/03/12 02:42:40;;;;;;;6.15;5.65;;;;;;;;;;5032789;28;20188;-63
2023/03/12 02:45:09;;;;;;;8.75;6.00;;;;;;;;;;5032682;28;20201;-63
2023/03/12 02:47:37;;;;;;;24.65;10.30;;;;;;;;;;5015035;28;20216;-64
2023/03/12 02:50:03;;;;;;;18.38;11.02;;;;;;;;;;5014838;28;20191;-63
2023/03/12 02:52:34;;;;;;;14.05;10.20;;;;;;;;;;5032446;28;20720;-63
2023/03/12 02:55:00;;;;;;;22.77;12.27;;;;;;;;;;5032735;28;20185;-63
2023/03/12 02:57:29;;;;;;;32.40;14.47;;;;;;;;;;5031917;28;20189;-63
2023/03/12 02:59:55;;;;;;;23.85;12.98;;;;;;;;;;5032336;28;20424;-63
2023/03/12 03:02:21;;;;;;;17.03;10.53;;;;;;;;;;5032201;28;20197;-63
2023/03/12 03:04:47;;;;;;;21.07;11.70;;;;;;;;;;5032316;28;20439;-63
2023/03/12 03:07:13;;;;;;;19.00;11.20;;;;;;;;;;5032428;28;20924;-64
2023/03/12 03:09:40;;;;;;;22.45;12.00;;;;;;;;;;5032575;28;20461;-63
2023/03/12 03:12:06;;;;;;;17.40;10.27;;;;;;;;;;5032463;28;20211;-63
2023/03/12 03:14:32;;;;;;;17.67;11.50;;;;;;;;;;5032261;28;20177;-64
2023/03/12 03:16:58;;;;;;;17.50;10.73;;;;;;;;;;5032293;28;20409;-63
2023/03/12 03:19:24;;;;;;;14.23;9.20;;;;;;;;;;5032258;28;20404;-64
2023/03/12 03:21:52;;;;;;;17.33;8.77;;;;;;;;;;5032341;28;20442;-63
2023/03/12 03:24:18;;;;;;;11.25;7.93;;;;;;;;;;5032443;28;20420;-63
2023/03/12 03:26:44;;;;;;;9.30;6.97;;;;;;;;;;5032409;28;20221;-63
2023/03/12 03:29:10;;;;;;;7.90;7.10;;;;;;;;;;5032451;28;20806;-63
2023/03/12 03:31:36;;;;;;;8.13;7.30;;;;;;;;;;5032442;28;20172;-63
2023/03/12 03:34:05;;;;;;;8.90;6.60;;;;;;;;;;5032653;28;20416;-64
2023/03/12 03:36:31;;;;;;;9.63;7.15;;;;;;;;;;5032813;28;20474;-63
2023/03/12 03:38:57;;;;;;;8.23;7.40;;;;;;;;;;5032313;28;20284;-63
2023/03/12 03:41:24;;;;;;;9.10;6.80;;;;;;;;;;5032214;28;20429;-63
2023/03/12 03:43:51;;;;;;;12.80;7.07;;;;;;;;;;5032050;28;20460;-63
2023/03/12 03:46:17;;;;;;;7.30;6.60;;;;;;;;;;5031803;28;20406;-63
2023/03/12 03:48:47;;;;;;;7.10;6.40;;;;;;;;;;5032035;28;20259;-63
2023/03/12 03:51:14;;;;;;;8.48;7.20;;;;;;;;;;5032016;28;20945;-64
2023/03/12 03:53:40;;;;;;;7.37;6.67;;;;;;;;;;5031663;28;20271;-64
2023/03/12 03:56:18;;;;;;;7.60;6.80;;;;;;;;;;5031994;28;20466;-63
2023/03/12 03:59:06;;;;;;;7.47;6.85;;;;;;;;;;5032259;28;20419;-64
2023/03/12 04:02:01;;;;;;;7.63;6.22;;;;;;;;;;5031806;28;20205;-63
2023/03/12 04:07:48;;;;;;;7.43;5.97;;;;;;;;;;5032264;28;20469;-63
2023/03/12 04:10:49;;;;;;;7.60;7.00;;;;;;;;;;5034416;28;20387;-63
2023/03/12 04:13:14;;;;;;;7.90;7.13;;;;;;;;;;5035753;28;20415;-63
2023/03/12 04:15:53;;;;;;;8.00;7.30;;;;;;;;;;5035219;28;20561;-64
2023/03/12 04:18:19;;;;;;;8.30;7.70;;;;;;;;;;5035195;28;20405;-64
2023/03/12 04:20:45;;;;;;;8.80;8.10;;;;;;;;;;5017600;28;20427;-64
2023/03/12 04:23:11;;;;;;;8.90;8.20;;;;;;;;;;5035227;28;20424;-63
2023/03/12 04:25:37;;;;;;;10.07;9.37;;;;;;;;;;5035288;28;20419;-64
2023/03/12 04:28:04;;;;;;;9.30;8.60;;;;;;;;;;5034936;28;21041;-63
2023/03/12 04:30:29;;;;;;;9.37;8.53;;;;;;;;;;5035567;28;20489;-64
2023/03/12 04:32:56;;;;;;;9.13;8.43;;;;;;;;;;5034968;28;20416;-64
2023/03/12 04:35:23;;;;;;;10.37;8.90;;;;;;;;;;5035467;28;20875;-63
2023/03/12 04:37:49;;;;;;;8.50;7.90;;;;;;;;;;5035540;28;20443;-63
2023/03/12 04:40:17;;;;;;;9.43;8.37;;;;;;;;;;5035003;28;20439;-64
2023/03/12 04:42:44;;;;;;;8.67;7.97;;;;;;;;;;5034856;28;20910;-64
2023/03/12 04:45:10;;;;;;;7.40;6.90;;;;;;;;;;5035093;28;20443;-63
2023/03/12 04:47:36;;;;;;;7.60;7.07;;;;;;;;;;5035082;28;20801;-63
2023/03/12 04:50:02;;;;;;;7.67;7.17;;;;;;;;;;5034690;28;20895;-63
2023/03/12 04:52:28;;;;;;;8.17;7.57;;;;;;;;;;5035060;28;20871;-64
2023/03/12 04:54:54;;;;;;;7.43;6.93;;;;;;;;;;5034732;28;20423;-63
2023/03/12 04:57:20;;;;;;;6.83;6.30;;;;;;;;;;5034996;28;20416;-62
2023/03/12 04:59:49;;;;;;;6.50;6.00;;;;;;;;;;5034610;28;20506;-62
2023/03/12 05:02:15;;;;;;;5.83;5.53;;;;;;;;;;5034511;28;20462;-63
2023/03/12 05:04:41;;;;;;;6.30;5.90;;;;;;;;;;5034562;28;20865;-63
2023/03/12 05:07:07;;;;;;;6.20;5.90;;;;;;;;;;5017012;28;20451;-62
2023/03/12 05:09:33;;;;;;;9.53;5.50;;;;;;;;;;5034236;28;20430;-63
2023/03/12 05:11:59;;;;;;;7.63;6.77;;;;;;;;;;5034515;28;20979;-63
2023/03/12 05:14:27;;;;;;;6.27;5.87;;;;;;;;;;5034550;28;20890;-62
2023/03/12 05:16:53;;;;;;;5.93;5.63;;;;;;;;;;5034736;28;20819;-63
2023/03/12 05:19:21;;;;;;;6.23;5.93;;;;;;;;;;5034405;28;20447;-65
2023/03/12 05:21:47;;;;;;;6.60;6.20;;;;;;;;;;5033217;28;20953;-64
2023/03/12 05:24:13;;;;;;;5.90;5.60;;;;;;;;;;5034051;28;20408;-64
2023/03/12 05:26:39;;;;;;;5.50;5.20;;;;;;;;;;5033760;28;20408;-63
2023/03/12 05:29:06;;;;;;;5.23;4.83;;;;;;;;;;5034104;28;20451;-64
2023/03/12 05:31:34;;;;;;;5.00;4.80;;;;;;;;;;5033958;28;20423;-63
2023/03/12 05:34:00;;;;;;;5.00;4.70;;;;;;;;;;5033736;28;20793;-63
2023/03/12 05:36:28;;;;;;;4.90;4.70;;;;;;;;;;5033860;28;20447;-63
2023/03/12 05:38:54;;;;;;;5.27;4.97;;;;;;;;;;5033474;28;20432;-63
2023/03/12 05:41:25;;;;;;;4.10;4.00;;;;;;;;;;5033664;28;20569;-63
2023/03/12 05:43:52;;;;;;;4.73;4.53;;;;;;;;;;5032766;28;20443;-63
2023/03/12 05:46:18;;;;;;;4.23;4.03;;;;;;;;;;5033528;28;20921;-63
2023/03/12 05:48:44;;;;;;;3.83;3.73;;;;;;;;;;5033486;28;20821;-63
2023/03/12 05:51:10;;;;;;;4.63;4.43;;;;;;;;;;5033323;28;20923;-63
2023/03/12 05:53:38;;;;;;;3.47;3.40;;;;;;;;;;5033261;28;20444;-63
2023/03/12 05:56:05;;;;;;;3.87;3.77;;;;;;;;;;5033227;28;20397;-62
2023/03/12 05:58:32;;;;;;;3.60;3.50;;;;;;;;;;5033298;28;20417;-63
2023/03/12 06:00:58;;;;;;;3.77;3.67;;;;;;;;;;5033321;28;20419;-63
2023/03/12 06:03:24;;;;;;;3.20;3.20;;;;;;;;;;5033054;28;20506;-63
2023/03/12 06:05:53;;;;;;;3.47;3.40;;;;;;;;;;5032872;28;20473;-63
2023/03/12 06:08:20;;;;;;;3.30;3.20;;;;;;;;;;5032864;28;20992;-63
2023/03/12 06:10:49;;;;;;;3.50;2.93;;;;;;;;;;5015343;28;20451;-63
2023/03/12 06:13:15;;;;;;;4.00;3.80;;;;;;;;;;5032802;28;20412;-63
2023/03/12 06:15:41;;;;;;;3.73;3.63;;;;;;;;;;5015278;28;20936;-63
2023/03/12 06:18:10;;;;;;;3.30;3.20;;;;;;;;;;5032961;28;20411;-63
2023/03/12 06:20:36;;;;;;;3.87;3.67;;;;;;;;;;5033068;28;20889;-63
2023/03/12 06:23:02;;;;;;;4.20;4.00;;;;;;;;;;5032975;28;20491;-63
2023/03/12 06:25:30;;;;;;;3.97;3.60;;;;;;;;;;5032431;28;20827;-63
2023/03/12 06:27:58;;;;;;;3.30;3.20;;;;;;;;;;5032253;28;20977;-63
2023/03/12 06:30:27;;;;;;;3.70;3.50;;;;;;;;;;5032713;28;20879;-63
2023/03/12 06:32:55;;;;;;;3.50;3.40;;;;;;;;;;5032560;28;20908;-63
2023/03/12 06:35:21;;;;;;;3.77;3.60;;;;;;;;;;5014985;28;20415;-62
2023/03/12 06:37:47;;;;;;;3.60;3.50;;;;;;;;;;5032800;28;20415;-62
2023/03/12 06:40:13;;;;;;;4.00;3.53;;;;;;;;;;5014926;28;21006;-62
2023/03/12 06:42:39;;;;;;;3.23;3.23;;;;;;;;;;5032512;28;20386;-63
2023/03/12 06:45:05;;;;;;;3.60;3.50;;;;;;;;;;5032534;28;20423;-63
2023/03/12 06:47:31;;;;;;;3.40;3.30;;;;;;;;;;5032830;28;20525;-63
2023/03/12 06:49:57;;;;;;;3.70;3.60;;;;;;;;;;5015066;28;20435;-62
2023/03/12 06:52:26;;;;;;;4.03;3.93;;;;;;;;;;5032472;28;20419;-63
2023/03/12 06:54:52;;;;;;;4.00;3.80;;;;;;;;;;5032474;28;20447;-63
2023/03/12 06:57:18;;;;;;;3.77;3.67;;;;;;;;;;5032467;28;20474;-63
2023/03/12 06:59:44;;;;;;;3.60;3.50;;;;;;;;;;5032492;28;20390;-63
2023/03/12 07:02:13;;;;;;;3.80;3.70;;;;;;;;;;5032360;28;20506;-63
2023/03/12 07:04:39;;;;;;;4.07;3.77;;;;;;;;;;5014675;28;20448;-63
2023/03/12 07:07:07;;;;;;;8.27;7.40;;;;;;;;;;5032042;28;20432;-63
2023/03/12 07:09:36;;;;;;;3.10;3.10;;;;;;;;;;5032251;28;20493;-63
2023/03/12 07:12:03;;;;;;;3.97;3.63;;;;;;;;;;5032091;28;20419;-62
2023/03/12 07:14:29;;;;;;;2.67;2.67;;;;;;;;;;5032262;28;20790;-63
2023/03/12 07:16:57;;;;;;;3.50;3.40;;;;;;;;;;5032160;28;20422;-63
2023/03/12 07:19:24;;;;;;;4.17;3.70;;;;;;;;;;5032191;28;20426;-62
2023/03/12 07:21:49;;;;;;;4.30;3.90;;;;;;;;;;5032160;28;20522;-63
2023/03/12 07:24:15;;;;;;;3.70;3.60;;;;;;;;;;5032149;28;21060;-63
2023/03/12 07:26:42;;;;;;;3.80;3.70;;;;;;;;;;5031779;28;20436;-63
2023/03/12 07:29:08;;;;;;;6.50;4.00;;;;;;;;;;5031819;28;20463;-63
2023/03/12 07:31:34;;;;;;;4.33;4.10;;;;;;;;;;5032104;28;20427;-63
2023/03/12 07:34:01;;;;;;;10.60;9.67;;;;;;;;;;5031964;28;20404;-62
2023/03/12 07:36:28;;;;;;;13.73;10.80;;;;;;;;;;5031825;28;21028;-63
2023/03/12 07:38:54;;;;;;;3.80;3.60;;;;;;;;;;5031796;28;20467;-62
2023/03/12 07:41:20;;;;;;;4.10;3.87;;;;;;;;;;5031832;28;20412;-63
2023/03/12 07:43:46;;;;;;;5.63;3.90;;;;;;;;;;5032077;28;20436;-65
2023/03/12 07:46:12;;;;;;;4.43;4.30;;;;;;;;;;5035843;28;20408;-64
2023/03/12 07:48:41;;;;;;;4.70;4.30;;;;;;;;;;5035784;28;20958;-65
2023/03/12 07:51:07;;;;;;;4.07;3.87;;;;;;;;;;5035822;28;20747;-64
2023/03/12 07:53:33;;;;;;;3.97;3.77;;;;;;;;;;5035667;28;20422;-64
2023/03/12 07:55:59;;;;;;;3.97;3.87;;;;;;;;;;5035706;28;20428;-64
2023/03/12 07:58:25;;;;;;;3.63;3.53;;;;;;;;;;5035396;28;20418;-64
2023/03/12 08:00:53;;;;;;;6.83;3.97;;;;;;;;;;5035410;28;20439;-64
2023/03/12 08:03:20;;;;;;;3.97;3.73;;;;;;;;;;5035423;28;20411;-64
2023/03/12 08:05:54;;;;;;;4.60;3.97;;;;;;;;;;5035284;28;20819;-59
2023/03/12 08:08:20;;;;;;;4.00;3.70;;;;;;;;;;5035441;28;20812;-60
2023/03/12 08:10:46;;;;;;;2.93;2.83;;;;;;;;;;5035366;28;20407;-59
2023/03/12 08:13:12;;;;;;;8.33;3.50;;;;;;;;;;5035558;28;20392;-60
2023/03/12 08:15:38;;;;;;;3.90;3.20;;;;;;;;;;5035331;28;20467;-61
2023/03/12 08:18:04;;;;;;;5.60;5.30;;;;;;;;;;5035542;28;20469;-60
2023/03/12 08:20:30;;;;;;;3.73;3.63;;;;;;;;;;5017569;28;20422;-61
2023/03/12 08:22:56;;;;;;;3.23;3.13;;;;;;;;;;5035366;28;21050;-61
2023/03/12 08:25:23;;;;;;;3.50;3.40;;;;;;;;;;5035275;28;20418;-61
2023/03/12 08:27:49;;;;;;;6.43;3.80;;;;;;;;;;5034941;28;20456;-60
2023/03/12 08:30:15;;;;;;;4.13;3.83;;;;;;;;;;5035188;28;20520;-60
2023/03/12 08:32:41;;;;;;;3.40;3.30;;;;;;;;;;5035141;28;20487;-61
2023/03/12 08:35:08;;;;;;;2.87;2.77;;;;;;;;;;5034983;28;20503;-62
2023/03/12 08:37:37;;;;;;;4.20;4.00;;;;;;;;;;5035069;28;20442;-61
2023/03/12 08:40:11;;;;;;;7.53;6.33;;;;;;;;;;5034788;28;20542;-61
2023/03/12 08:42:38;;;;;;;4.60;4.33;;;;;;;;;;5034727;28;20791;-61
2023/03/12 08:45:04;;;;;;;10.33;9.10;;;;;;;;;;5034649;28;20443;-61
2023/03/12 08:47:30;;;;;;;4.47;4.13;;;;;;;;;;5017000;28;20524;-61
2023/03/12 08:49:57;;;;;;;2.07;2.07;;;;;;;;;;5034697;28;20432;-60
2023/03/12 08:52:23;;;;;;;3.73;3.43;;;;;;;;;;5017471;28;20423;-62
2023/03/12 08:54:49;;;;;;;5.60;5.20;;;;;;;;;;5017306;28;20435;-61
2023/03/12 08:57:15;;;;;;;3.33;3.20;;;;;;;;;;5035054;28;20795;-60
2023/03/12 08:59:41;;;;;;;3.30;3.20;;;;;;;;;;5035452;28;20918;-61
2023/03/12 09:02:07;;;;;;;3.37;3.27;;;;;;;;;;5035289;28;20427;-61
2023/03/12 09:04:36;;;;;;;3.23;2.97;;;;;;;;;;5034824;28;20447;-61
2023/03/12 09:07:02;;;;;;;3.20;3.10;;;;;;;;;;5041587;28;20442;-61
2023/03/12 09:09:28;;;;;;;3.37;3.27;;;;;;;;;;5054591;28;20517;-62
2023/03/12 09:11:54;;;;;;;3.37;3.30;;;;;;;;;;5054474;28;20422;-62
2023/03/12 09:14:20;;;;;;;2.53;2.53;;;;;;;;;;5054489;28;20415;-61
2023/03/12 09:16:46;;;;;;;3.10;3.00;;;;;;;;;;5054266;28;20421;-62
2023/03/12 09:19:12;;;;;;;2.87;2.80;;;;;;;;;;5054680;28;20411;-58
2023/03/12 09:21:40;;;;;;;3.87;3.77;;;;;;;;;;5054653;28;20426;-59
2023/03/12 09:24:07;;;;;;;2.43;2.40;;;;;;;;;;5054422;28;20474;-59
2023/03/12 09:26:33;;;;;;;2.83;2.73;;;;;;;;;;5054276;28;20415;-60
2023/03/12 09:28:59;;;;;;;3.47;3.23;;;;;;;;;;5054482;28;20470;-61
2023/03/12 09:31:25;;;;;;;2.67;2.57;;;;;;;;;;5054262;28;20768;-61
2023/03/12 09:33:52;;;;;;;2.13;2.13;;;;;;;;;;5036215;28;20422;-61
2023/03/12 09:36:18;;;;;;;2.00;2.00;;;;;;;;;;5054185;28;20456;-61
2023/03/12 09:38:44;;;;;;;2.37;2.17;;;;;;;;;;5054399;28;20518;-61
2023/03/12 09:41:18;;;;;;;2.13;2.03;;;;;;;;;;5053912;28;20406;-58
2023/03/12 09:43:50;;;;;;;2.27;2.10;;;;;;;;;;5053842;28;20525;-58
2023/03/12 09:46:20;;;;;;;2.10;2.10;;;;;;;;;;5053888;28;20522;-59
2023/03/12 09:48:49;;;;;;;5.73;2.30;;;;;;;;;;5053656;28;20513;-60
2023/03/12 09:51:18;;;;;;;1.73;1.73;;;;;;;;;;5054400;28;20445;-60
2023/03/12 09:53:47;;;;;;;2.97;2.87;;;;;;;;;;5053744;28;20411;-60
2023/03/12 09:56:17;;;;;;;2.50;2.40;;;;;;;;;;5053735;28;20425;-62
2023/03/12 09:58:46;;;;;;;1.90;1.90;;;;;;;;;;5053758;28;20872;-63
2023/03/12 10:01:48;;;;;;;2.10;2.00;;;;;;;;;;5053728;28;20411;-63
2023/03/12 10:04:23;;;;;;;6.40;6.10;;;;;;;;;;4953341;29;20497;-63
2023/03/12 10:07:00;;;;;;;1.90;1.90;;;;;;;;;;5038889;28;20525;-64
2023/03/12 10:09:29;;;;;;;2.23;2.23;;;;;;;;;;5053450;28;20453;-64
2023/03/12 10:12:09;;;;;;;1.80;1.80;;;;;;;;;;5053240;28;20411;-64
2023/03/12 10:14:38;;;;;;;1.70;1.70;;;;;;;;;;5053491;28;20410;-64
2023/03/12 10:17:23;;;;;;;2.33;2.13;;;;;;;;;;5053355;28;20913;-64
2023/03/12 10:20:02;;;;;;;2.17;2.07;;;;;;;;;;5053278;28;20430;-63
2023/03/12 10:22:35;;;;;;;2.80;2.70;;;;;;;;;;5053077;28;20902;-60
2023/03/12 10:25:18;;;;;;;2.80;2.70;;;;;;;;;;5053477;28;20488;-61
2023/03/12 10:27:44;;;;;;;2.30;2.30;;;;;;;;;;5035508;28;20472;-64
2023/03/12 10:30:30;;;;;;;2.27;2.17;;;;;;;;;;5053131;28;20425;-63
2023/03/12 10:32:58;;;;;;;2.17;2.17;;;;;;;;;;5053063;28;20465;-63
2023/03/12 10:35:26;;;;;;;2.10;2.10;;;;;;;;;;5035410;28;20415;-64
2023/03/12 10:37:57;;;;;;;1.93;1.70;;;;;;;;;;5052778;28;20518;-63
2023/03/12 10:40:24;;;;;;;1.80;1.80;;;;;;;;;;5052832;28;20442;-59
2023/03/12 10:42:51;;;;;;;1.73;1.73;;;;;;;;;;5052941;28;20465;-60
2023/03/12 10:45:35;;;;;;;1.63;1.63;;;;;;;;;;5052623;28;20482;-63
2023/03/12 10:48:07;;;;;;;1.43;1.43;;;;;;;;;;5052987;28;20790;-63
2023/03/12 10:50:34;;;;;;;3.00;1.57;;;;;;;;;;5053259;28;20447;-63
2023/03/12 10:53:19;;;;;;;1.47;1.37;;;;;;;;;;5052565;28;20510;-68
2023/03/12 10:55:57;;;;;;;2.27;2.07;;;;;;;;;;5052355;28;20428;-65
2023/03/12 10:58:23;;;;;;;2.00;1.90;;;;;;;;;;5052381;28;20445;-63
2023/03/12 11:00:56;;;;;;;2.63;2.43;;;;;;;;;;5052385;28;20462;-63
2023/03/12 11:03:25;;;;;;;2.40;2.40;;;;;;;;;;5052358;28;20792;-63
2023/03/12 11:05:52;;;;;;;2.40;2.27;;;;;;;;;;5034668;28;20409;-63
2023/03/12 11:08:39;;;;;;;2.63;2.00;;;;;;;;;;5052312;28;20447;-63
2023/03/12 11:11:05;;;;;;;2.60;2.50;;;;;;;;;;5052173;28;20439;-63
2023/03/12 11:13:32;;;;;;;2.00;1.90;;;;;;;;;;5052256;28;20416;-64
2023/03/12 11:16:00;;;;;;;2.07;1.90;;;;;;;;;;5034578;28;20939;-64
2023/03/12 11:18:28;;;;;;;1.90;1.90;;;;;;;;;;5052492;28;20913;-63
2023/03/12 11:20:58;;;;;;;1.90;1.80;;;;;;;;;;5038789;28;21062;-63
2023/03/12 11:23:26;;;;;;;2.10;2.00;;;;;;;;;;5056307;28;20410;-61
2023/03/12 11:25:53;;;;;;;1.63;1.63;;;;;;;;;;5056223;28;20806;-62
2023/03/12 11:28:22;;;;;;;2.30;2.00;;;;;;;;;;5038570;28;20469;-64
2023/03/12 11:30:49;;;;;;;1.90;1.80;;;;;;;;;;5056438;28;20519;-64
2023/03/12 11:33:15;;;;;;;2.47;2.27;;;;;;;;;;5056276;28;20406;-64
2023/03/12 11:35:49;;;;;;;2.10;2.00;;;;;;;;;;5056399;28;20434;-65
2023/03/12 11:38:19;;;;;;;2.47;2.27;;;;;;;;;;5055939;28;20414;-65
2023/03/12 11:41:14;;;;;;;2.00;1.90;;;;;;;;;;5056014;28;20425;-65
2023/03/12 11:43:46;;;;;;;2.00;1.87;;;;;;;;;;5034223;28;20458;-65
2023/03/12 11:46:31;;;;;;;2.07;1.97;;;;;;;;;;5055988;28;20418;-65
2023/03/12 11:49:16;;;;;;;4.60;2.17;;;;;;;;;;5056133;28;20937;-65
2023/03/12 11:51:44;;;;;;;1.70;1.60;;;;;;;;;;5055905;28;20881;-65
2023/03/12 11:54:13;;;;;;;2.23;1.83;;;;;;;;;;5056003;28;20409;-65
2023/03/12 11:56:41;;;;;;;2.47;1.90;;;;;;;;;;5055676;28;20422;-65
2023/03/12 11:59:07;;;;;;;2.47;1.77;;;;;;;;;;5056107;28;20445;-66
2023/03/12 12:01:33;;;;;;;2.93;1.50;;;;;;;;;;5055928;28;20771;-65
2023/03/12 12:04:18;;;;;;;3.43;1.70;;;;;;;;;;5055797;28;20414;-65
2023/03/12 12:07:03;;;;;;;1.83;1.43;;;;;;;;;;5055584;28;20410;-65
2023/03/12 12:09:35;;;;;;;7.00;1.30;;;;;;;;;;5037605;28;21097;-65
2023/03/12 12:12:27;;;;;;;3.20;1.73;;;;;;;;;;5055690;28;20568;-65
2023/03/12 12:14:56;;;;;;;4.57;1.70;;;;;;;;;;5017436;28;20863;-65
2023/03/12 12:17:40;;;;;;;4.57;1.70;;;;;;;;;;5055099;28;20476;-65
2023/03/12 12:20:12;;;;;;;3.87;2.83;;;;;;;;;;5054977;28;20468;-64
2023/03/12 12:22:44;;;;;;;2.70;1.77;;;;;;;;;;5055422;28;20411;-64
2023/03/12 12:25:19;;;;;;;5.80;1.73;;;;;;;;;;5055410;28;20470;-64
2023/03/12 12:27:54;;;;;;;5.43;1.70;;;;;;;;;;5055372;28;20486;-64
2023/03/12 12:30:56;;;;;;;3.47;1.30;;;;;;;;;;5054749;28;20851;-64
2023/03/12 12:33:22;;;;;;;7.70;2.30;;;;;;;;;;4954923;29;20652;-65
2023/03/12 12:35:49;;;;;;;3.83;1.73;;;;;;;;;;5034909;28;20427;-65
2023/03/12 12:38:28;;;;;;;2.93;1.70;;;;;;;;;;5055297;28;20403;-65
2023/03/12 12:40:55;;;;;;;3.30;1.63;;;;;;;;;;5055021;28;20440;-65
2023/03/12 12:43:36;;;;;;;3.70;1.30;;;;;;;;;;5054946;28;20432;-65
2023/03/12 12:46:04;;;;;;;4.00;1.37;;;;;;;;;;5055451;28;20421;-65
2023/03/12 12:48:34;;;;;;;2.83;1.27;;;;;;;;;;5054902;28;20556;-64
2023/03/12 12:51:01;;;;;;;1.20;1.10;;;;;;;;;;5054857;28;20418;-65
2023/03/12 12:53:29;;;;;;;1.90;1.10;;;;;;;;;;5054886;28;20395;-64
2023/03/12 12:55:59;;;;;;;4.00;2.23;;;;;;;;;;5054738;28;20901;-62
2023/03/12 12:58:25;;;;;;;2.20;1.13;;;;;;;;;;5036822;28;20984;-64
2023/03/12 13:00:54;;;;;;;3.50;1.50;;;;;;;;;;5054712;28;21005;-65
2023/03/12 13:03:24;;;;;;;2.70;1.33;;;;;;;;;;5054877;28;20937;-64
2023/03/12 13:05:54;;;;;;;3.63;1.37;;;;;;;;;;5054625;28;20456;-64
2023/03/12 13:08:33;;;;;;;5.03;1.70;;;;;;;;;;5054675;28;20537;-64
2023/03/12 13:10:59;;;;;;;2.27;1.20;;;;;;;;;;5054466;28;20468;-64
2023/03/12 13:13:25;;;;;;;1.30;1.10;;;;;;;;;;5054494;28;20444;-65
2023/03/12 13:15:51;;;;;;;7.17;1.43;;;;;;;;;;5054327;28;20434;-65
2023/03/12 13:18:17;;;;;;;3.13;1.23;;;;;;;;;;5054466;28;20420;-64
2023/03/12 13:20:52;;;;;;;1.50;1.30;;;;;;;;;;5054284;28;20567;-64
2023/03/12 13:23:34;;;;;;;1.30;1.10;;;;;;;;;;5054436;28;20420;-64
2023/03/12 13:26:06;;;;;;;5.43;1.73;;;;;;;;;;5054290;28;20432;-65
2023/03/12 13:28:36;;;;;;;5.47;2.00;;;;;;;;;;5054099;28;20452;-65
2023/03/12 13:31:21;;;;;;;1.10;1.00;;;;;;;;;;5054206;28;20444;-65
2023/03/12 13:33:49;;;;;;;4.00;1.40;;;;;;;;;;5054089;28;20417;-65
2023/03/12 13:36:15;;;;;;;6.13;1.70;;;;;;;;;;5054315;28;20444;-64
2023/03/12 13:39:20;;;;;;;1.77;1.67;;;;;;;;;;5053860;28;20411;-64
2023/03/12 13:41:49;;;;;;;1.47;1.33;;;;;;;;;;4952767;28;20482;-63
2023/03/12 13:44:30;;;;;;;2.70;1.50;;;;;;;;;;4953571;29;20478;-63
2023/03/12 13:47:17;;;;;;;1.83;1.50;;;;;;;;;;5013417;28;20427;-64
2023/03/12 13:49:47;;;;;;;5.27;2.20;;;;;;;;;;5053731;28;20930;-65
2023/03/12 13:52:13;;;;;;;3.60;2.20;;;;;;;;;;5053595;28;20985;-64
2023/03/12 13:54:40;;;;;;;2.60;1.43;;;;;;;;;;5053451;28;20436;-63
2023/03/12 13:57:20;;;;;;;1.97;1.67;;;;;;;;;;5035537;28;20493;-64
2023/03/12 13:59:48;;;;;;;4.07;1.70;;;;;;;;;;5053438;28;20449;-63
2023/03/12 14:02:20;;;;;;;3.37;1.80;;;;;;;;;;5053210;28;20997;-62
2023/03/12 14:04:49;;;;;;;3.03;2.00;;;;;;;;;;5035288;28;20505;-62
2023/03/12 14:07:24;;;;;;;6.27;2.07;;;;;;;;;;5053223;28;20469;-62
2023/03/12 14:10:03;;;;;;;8.17;2.30;;;;;;;;;;5053319;28;20420;-62
2023/03/12 14:12:48;;;;;;;2.00;1.67;;;;;;;;;;5053419;28;20434;-62
2023/03/12 14:15:19;;;;;;;7.80;1.97;;;;;;;;;;5053120;28;20516;-60
2023/03/12 14:17:45;;;;;;;6.40;2.27;;;;;;;;;;5053100;28;20503;-62
2023/03/12 14:20:22;;;;;;;4.70;2.17;;;;;;;;;;5053158;28;20417;-63
2023/03/12 14:22:54;;;;;;;5.50;2.13;;;;;;;;;;5053083;28;20437;-62
2023/03/12 14:25:22;;;;;;;3.30;1.90;;;;;;;;;;5053452;28;20818;-63
2023/03/12 14:27:51;;;;;;;5.20;1.60;;;;;;;;;;5053136;28;20882;-63
2023/03/12 14:30:30;;;;;;;5.30;2.10;;;;;;;;;;5053174;28;20556;-63
2023/03/12 14:32:57;;;;;;;6.77;2.20;;;;;;;;;;5052807;28;20428;-63
2023/03/12 14:35:29;;;;;;;5.87;2.40;;;;;;;;;;5053197;28;20499;-61
2023/03/12 14:37:57;;;;;;;4.80;2.00;;;;;;;;;;5052802;28;20434;-61
2023/03/12 14:40:25;;;;;;;4.17;2.10;;;;;;;;;;5052776;28;20421;-63
2023/03/12 14:42:52;;;;;;;9.03;2.10;;;;;;;;;;5052553;28;20901;-62
2023/03/12 14:45:19;;;;;;;6.00;2.70;;;;;;;;;;5052759;28;20445;-62
2023/03/12 14:47:54;;;;;;;7.40;2.10;;;;;;;;;;5052676;28;20591;-62
2023/03/12 14:50:24;;;;;;;5.70;2.00;;;;;;;;;;5052698;28;20433;-62
2023/03/12 14:52:51;;;;;;;4.40;1.90;;;;;;;;;;5052488;28;20434;-61
2023/03/12 14:55:20;;;;;;;3.47;2.23;;;;;;;;;;5052503;28;20452;-62
2023/03/12 14:57:46;;;;;;;4.47;1.90;;;;;;;;;;5052430;28;20420;-62
2023/03/12 15:00:26;;;;;;;3.83;1.97;;;;;;;;;;5052570;28;20413;-61
2023/03/12 15:02:52;;;;;;;6.93;2.37;;;;;;;;;;5052572;28;20490;-62
2023/03/12 15:05:20;;;;;;;2.40;2.20;;;;;;;;;;5052852;28;20402;-62
2023/03/12 15:07:46;;;;;;;4.00;2.47;;;;;;;;;;5052277;28;20468;-62
2023/03/12 15:10:17;;;;;;;4.93;1.90;;;;;;;;;;5052334;28;20875;-62
2023/03/12 15:12:44;;;;;;;7.67;2.13;;;;;;;;;;5052429;28;20921;-61
2023/03/12 15:15:19;;;;;;;7.03;2.20;;;;;;;;;;5052201;28;20424;-62
2023/03/12 15:17:45;;;;;;;4.27;3.20;;;;;;;;;;5052445;28;20536;-62
2023/03/12 15:20:14;;;;;;;3.47;1.87;;;;;;;;;;5052366;28;20424;-62
2023/03/12 15:22:41;;;;;;;5.43;2.37;;;;;;;;;;5052243;28;20495;-62